<?xml version="1.0" encoding="utf-8"?>
<gpx xmlns:xsi="http://www.w3.org/2001/XMLSchema-instance" xmlns:xsd="http://www.w3.org/2001/XMLSchema" version="1.1" creator="Shapelink.com" xmlns="http://www.topografix.com/GPX/1/1" xmlns:gpxtpx="http://www.garmin.com/xmlschemas/TrackPointExtension/v1">
  <metadata>
    <name>Promenad 6.83 km, 2017-03-04</name>
    <desc></desc>
    <author><name>Morten Hedlund</name></author> 
    <time>2017-03-04T08:42:07Z</time>
  </metadata>
  <trk>
    <name>Promenad 6.83 km, 2017-03-04</name>
    <trkseg>
      <trkpt lat="59.026948454248" lon="12.224064305037">
        <ele>108.2</ele>
        <time>2017-03-04T08:42:07Z</time>
      </trkpt>
      <trkpt lat="59.026808811794" lon="12.224404191082">
        <ele>110.8</ele>
        <time>2017-03-04T08:42:20Z</time>
      </trkpt>
      <trkpt lat="59.026753407435" lon="12.224749525362">
        <ele>113</ele>
        <time>2017-03-04T08:42:31Z</time>
      </trkpt>
      <trkpt lat="59.026683837665" lon="12.225085220457">
        <ele>113</ele>
        <time>2017-03-04T08:42:43Z</time>
      </trkpt>
      <trkpt lat="59.02660630509" lon="12.225402978286">
        <ele>111</ele>
        <time>2017-03-04T08:42:56Z</time>
      </trkpt>
      <trkpt lat="59.026560372278" lon="12.225740768856">
        <ele>106.4</ele>
        <time>2017-03-04T08:43:12Z</time>
      </trkpt>
      <trkpt lat="59.02652751523" lon="12.226095993778">
        <ele>104.8</ele>
        <time>2017-03-04T08:43:27Z</time>
      </trkpt>
      <trkpt lat="59.026522066995" lon="12.226458343315">
        <ele>102</ele>
        <time>2017-03-04T08:43:41Z</time>
      </trkpt>
      <trkpt lat="59.026523072823" lon="12.226805940708">
        <ele>101.4</ele>
        <time>2017-03-04T08:43:54Z</time>
      </trkpt>
      <trkpt lat="59.026558779717" lon="12.227157226137">
        <ele>101.4</ele>
        <time>2017-03-04T08:44:06Z</time>
      </trkpt>
      <trkpt lat="59.026676377774" lon="12.22741681358">
        <ele>101.2</ele>
        <time>2017-03-04T08:44:21Z</time>
      </trkpt>
      <trkpt lat="59.026699679456" lon="12.227753346865">
        <ele>99.4</ele>
        <time>2017-03-04T08:44:34Z</time>
      </trkpt>
      <trkpt lat="59.02677561947" lon="12.228075463282">
        <ele>98.2</ele>
        <time>2017-03-04T08:44:48Z</time>
      </trkpt>
      <trkpt lat="59.026779307506" lon="12.228103458828">
        <ele>98.4</ele>
        <time>2017-03-04T08:44:49Z</time>
      </trkpt>
      <trkpt lat="59.02681333802" lon="12.228424988512">
        <ele>95.8</ele>
        <time>2017-03-04T08:45:04Z</time>
      </trkpt>
      <trkpt lat="59.02699019611" lon="12.228516267403">
        <ele>95.8</ele>
        <time>2017-03-04T08:45:17Z</time>
      </trkpt>
      <trkpt lat="59.027179207955" lon="12.228607462475">
        <ele>99.4</ele>
        <time>2017-03-04T08:45:31Z</time>
      </trkpt>
      <trkpt lat="59.027368135981" lon="12.228572593771">
        <ele>97.2</ele>
        <time>2017-03-04T08:45:42Z</time>
      </trkpt>
      <trkpt lat="59.027549017383" lon="12.228663537386">
        <ele>97</ele>
        <time>2017-03-04T08:45:53Z</time>
      </trkpt>
      <trkpt lat="59.027612468366" lon="12.228977020446">
        <ele>97.2</ele>
        <time>2017-03-04T08:46:04Z</time>
      </trkpt>
      <trkpt lat="59.027635267134" lon="12.229326545676">
        <ele>96.2</ele>
        <time>2017-03-04T08:46:16Z</time>
      </trkpt>
      <trkpt lat="59.027787063343" lon="12.229545229447">
        <ele>95.2</ele>
        <time>2017-03-04T08:46:29Z</time>
      </trkpt>
      <trkpt lat="59.027934752421" lon="12.22975871644">
        <ele>94.8</ele>
        <time>2017-03-04T08:46:41Z</time>
      </trkpt>
      <trkpt lat="59.028064252776" lon="12.230019309711">
        <ele>93.6</ele>
        <time>2017-03-04T08:46:54Z</time>
      </trkpt>
      <trkpt lat="59.028188221077" lon="12.230274706204">
        <ele>95</ele>
        <time>2017-03-04T08:47:06Z</time>
      </trkpt>
      <trkpt lat="59.028305986772" lon="12.230565474315">
        <ele>96.2</ele>
        <time>2017-03-04T08:47:19Z</time>
      </trkpt>
      <trkpt lat="59.0284327211" lon="12.230818859152">
        <ele>98</ele>
        <time>2017-03-04T08:47:31Z</time>
      </trkpt>
      <trkpt lat="59.028574459029" lon="12.231062185709">
        <ele>100.6</ele>
        <time>2017-03-04T08:47:43Z</time>
      </trkpt>
      <trkpt lat="59.028703624108" lon="12.231348930508">
        <ele>102.2</ele>
        <time>2017-03-04T08:47:55Z</time>
      </trkpt>
      <trkpt lat="59.028779564122" lon="12.231672890943">
        <ele>99.4</ele>
        <time>2017-03-04T08:48:07Z</time>
      </trkpt>
      <trkpt lat="59.028869753366" lon="12.231975896628">
        <ele>97.2</ele>
        <time>2017-03-04T08:48:19Z</time>
      </trkpt>
      <trkpt lat="59.029025656706" lon="12.231869697955">
        <ele>95.4</ele>
        <time>2017-03-04T08:48:32Z</time>
      </trkpt>
      <trkpt lat="59.029124479307" lon="12.231587814658">
        <ele>93.6</ele>
        <time>2017-03-04T08:48:45Z</time>
      </trkpt>
      <trkpt lat="59.029211315791" lon="12.231288748466">
        <ele>92.6</ele>
        <time>2017-03-04T08:48:56Z</time>
      </trkpt>
      <trkpt lat="59.029389012071" lon="12.231184226173">
        <ele>94.6</ele>
        <time>2017-03-04T08:49:08Z</time>
      </trkpt>
      <trkpt lat="59.029557404442" lon="12.231036788552">
        <ele>99</ele>
        <time>2017-03-04T08:49:18Z</time>
      </trkpt>
      <trkpt lat="59.029734513989" lon="12.230917681753">
        <ele>93.2</ele>
        <time>2017-03-04T08:49:31Z</time>
      </trkpt>
      <trkpt lat="59.029896536116" lon="12.231083727192">
        <ele>93</ele>
        <time>2017-03-04T08:49:43Z</time>
      </trkpt>
      <trkpt lat="59.029997118916" lon="12.23138480504">
        <ele>92.6</ele>
        <time>2017-03-04T08:49:54Z</time>
      </trkpt>
      <trkpt lat="59.030112872955" lon="12.231668029441">
        <ele>93.2</ele>
        <time>2017-03-04T08:50:06Z</time>
      </trkpt>
      <trkpt lat="59.030282019697" lon="12.231774479571">
        <ele>93.4</ele>
        <time>2017-03-04T08:50:19Z</time>
      </trkpt>
      <trkpt lat="59.030459296882" lon="12.231646990872">
        <ele>93</ele>
        <time>2017-03-04T08:50:31Z</time>
      </trkpt>
      <trkpt lat="59.030527190272" lon="12.231315319089">
        <ele>92</ele>
        <time>2017-03-04T08:50:42Z</time>
      </trkpt>
      <trkpt lat="59.030606063951" lon="12.230997645079">
        <ele>91.6</ele>
        <time>2017-03-04T08:50:54Z</time>
      </trkpt>
      <trkpt lat="59.0307712712" lon="12.230851967657">
        <ele>90.6</ele>
        <time>2017-03-04T08:51:05Z</time>
      </trkpt>
      <trkpt lat="59.030953661344" lon="12.23086345086">
        <ele>89.8</ele>
        <time>2017-03-04T08:51:16Z</time>
      </trkpt>
      <trkpt lat="59.031133788375" lon="12.230953891561">
        <ele>90.6</ele>
        <time>2017-03-04T08:51:27Z</time>
      </trkpt>
      <trkpt lat="59.031279549616" lon="12.231177604472">
        <ele>91</ele>
        <time>2017-03-04T08:51:38Z</time>
      </trkpt>
      <trkpt lat="59.031424472667" lon="12.231418081183">
        <ele>91.6</ele>
        <time>2017-03-04T08:51:49Z</time>
      </trkpt>
      <trkpt lat="59.031605437888" lon="12.231504163296">
        <ele>92</ele>
        <time>2017-03-04T08:52:01Z</time>
      </trkpt>
      <trkpt lat="59.031786654566" lon="12.231444735625">
        <ele>92.6</ele>
        <time>2017-03-04T08:52:13Z</time>
      </trkpt>
      <trkpt lat="59.031943312277" lon="12.231263686585">
        <ele>92.8</ele>
        <time>2017-03-04T08:52:25Z</time>
      </trkpt>
      <trkpt lat="59.032063173447" lon="12.231002087486">
        <ele>90.4</ele>
        <time>2017-03-04T08:52:36Z</time>
      </trkpt>
      <trkpt lat="59.032199798417" lon="12.230749540839">
        <ele>91</ele>
        <time>2017-03-04T08:52:48Z</time>
      </trkpt>
      <trkpt lat="59.032309601307" lon="12.230467657542">
        <ele>90</ele>
        <time>2017-03-04T08:52:59Z</time>
      </trkpt>
      <trkpt lat="59.032393839402" lon="12.230131208076">
        <ele>90</ele>
        <time>2017-03-04T08:53:11Z</time>
      </trkpt>
      <trkpt lat="59.032490985623" lon="12.229808253469">
        <ele>90.8</ele>
        <time>2017-03-04T08:53:23Z</time>
      </trkpt>
      <trkpt lat="59.032668765722" lon="12.229718315682">
        <ele>90.8</ele>
        <time>2017-03-04T08:53:34Z</time>
      </trkpt>
      <trkpt lat="59.032846713459" lon="12.229815126627">
        <ele>92.4</ele>
        <time>2017-03-04T08:53:44Z</time>
      </trkpt>
      <trkpt lat="59.033023990644" lon="12.229968766854">
        <ele>93.6</ele>
        <time>2017-03-04T08:53:54Z</time>
      </trkpt>
      <trkpt lat="59.03320034582" lon="12.230134309379">
        <ele>94.4</ele>
        <time>2017-03-04T08:54:05Z</time>
      </trkpt>
      <trkpt lat="59.033371839494" lon="12.230303791397">
        <ele>94.4</ele>
        <time>2017-03-04T08:54:16Z</time>
      </trkpt>
      <trkpt lat="59.033529838309" lon="12.230495988364">
        <ele>94.2</ele>
        <time>2017-03-04T08:54:27Z</time>
      </trkpt>
      <trkpt lat="59.03366805584" lon="12.230730849202">
        <ele>93.6</ele>
        <time>2017-03-04T08:54:38Z</time>
      </trkpt>
      <trkpt lat="59.033782301137" lon="12.231000243468">
        <ele>95.4</ele>
        <time>2017-03-04T08:54:49Z</time>
      </trkpt>
      <trkpt lat="59.03388514705" lon="12.231314983813">
        <ele>96</ele>
        <time>2017-03-04T08:55:00Z</time>
      </trkpt>
      <trkpt lat="59.034003583297" lon="12.231610781064">
        <ele>97.8</ele>
        <time>2017-03-04T08:55:11Z</time>
      </trkpt>
      <trkpt lat="59.034129144159" lon="12.231894927474">
        <ele>98.4</ele>
        <time>2017-03-04T08:55:22Z</time>
      </trkpt>
      <trkpt lat="59.034309019733" lon="12.232000204138">
        <ele>96.8</ele>
        <time>2017-03-04T08:55:34Z</time>
      </trkpt>
      <trkpt lat="59.034501132881" lon="12.231934573861">
        <ele>93.6</ele>
        <time>2017-03-04T08:55:46Z</time>
      </trkpt>
      <trkpt lat="59.034679332075" lon="12.231875565285">
        <ele>91.8</ele>
        <time>2017-03-04T08:55:57Z</time>
      </trkpt>
      <trkpt lat="59.034869098291" lon="12.231807001343">
        <ele>91.4</ele>
        <time>2017-03-04T08:56:08Z</time>
      </trkpt>
      <trkpt lat="59.035056266118" lon="12.231754698287">
        <ele>91.4</ele>
        <time>2017-03-04T08:56:19Z</time>
      </trkpt>
      <trkpt lat="59.035250390922" lon="12.231737766849">
        <ele>90.2</ele>
        <time>2017-03-04T08:56:31Z</time>
      </trkpt>
      <trkpt lat="59.035436301464" lon="12.231757464314">
        <ele>90</ele>
        <time>2017-03-04T08:56:43Z</time>
      </trkpt>
      <trkpt lat="59.035622379644" lon="12.231765510938">
        <ele>89.6</ele>
        <time>2017-03-04T08:56:55Z</time>
      </trkpt>
      <trkpt lat="59.035806613806" lon="12.231797445977">
        <ele>89</ele>
        <time>2017-03-04T08:57:06Z</time>
      </trkpt>
      <trkpt lat="59.035987243751" lon="12.231796607787">
        <ele>89.2</ele>
        <time>2017-03-04T08:57:17Z</time>
      </trkpt>
      <trkpt lat="59.036185475686" lon="12.231648164338">
        <ele>91</ele>
        <time>2017-03-04T08:57:30Z</time>
      </trkpt>
      <trkpt lat="59.036323022665" lon="12.231415315156">
        <ele>93.6</ele>
        <time>2017-03-04T08:57:40Z</time>
      </trkpt>
      <trkpt lat="59.036452690658" lon="12.231131001108">
        <ele>94</ele>
        <time>2017-03-04T08:57:51Z</time>
      </trkpt>
      <trkpt lat="59.036562493548" lon="12.230852470571">
        <ele>93.6</ele>
        <time>2017-03-04T08:58:02Z</time>
      </trkpt>
      <trkpt lat="59.036685875116" lon="12.230572766568">
        <ele>92.8</ele>
        <time>2017-03-04T08:58:14Z</time>
      </trkpt>
      <trkpt lat="59.036796935291" lon="12.230274454747">
        <ele>92.4</ele>
        <time>2017-03-04T08:58:26Z</time>
      </trkpt>
      <trkpt lat="59.036907492552" lon="12.229998354961">
        <ele>94.4</ele>
        <time>2017-03-04T08:58:36Z</time>
      </trkpt>
      <trkpt lat="59.03702752136" lon="12.229700546054">
        <ele>94.2</ele>
        <time>2017-03-04T08:58:48Z</time>
      </trkpt>
      <trkpt lat="59.03711134036" lon="12.229374909239">
        <ele>97</ele>
        <time>2017-03-04T08:59:00Z</time>
      </trkpt>
      <trkpt lat="59.037170348936" lon="12.229027395665">
        <ele>98.4</ele>
        <time>2017-03-04T08:59:12Z</time>
      </trkpt>
      <trkpt lat="59.037213431902" lon="12.228686000878">
        <ele>101.8</ele>
        <time>2017-03-04T08:59:25Z</time>
      </trkpt>
      <trkpt lat="59.037214018635" lon="12.228327339377">
        <ele>101.8</ele>
        <time>2017-03-04T08:59:36Z</time>
      </trkpt>
      <trkpt lat="59.037240170163" lon="12.227958032863">
        <ele>99.4</ele>
        <time>2017-03-04T08:59:48Z</time>
      </trkpt>
      <trkpt lat="59.037289288097" lon="12.227616889533">
        <ele>97.4</ele>
        <time>2017-03-04T08:59:59Z</time>
      </trkpt>
      <trkpt lat="59.037345027732" lon="12.227259904412">
        <ele>95.6</ele>
        <time>2017-03-04T09:00:11Z</time>
      </trkpt>
      <trkpt lat="59.037410322733" lon="12.226912809933">
        <ele>94.4</ele>
        <time>2017-03-04T09:00:23Z</time>
      </trkpt>
      <trkpt lat="59.037470840051" lon="12.226563703798">
        <ele>93.2</ele>
        <time>2017-03-04T09:00:35Z</time>
      </trkpt>
      <trkpt lat="59.037545355142" lon="12.226238486078">
        <ele>92.2</ele>
        <time>2017-03-04T09:00:46Z</time>
      </trkpt>
      <trkpt lat="59.03764107644" lon="12.225927601407">
        <ele>93.2</ele>
        <time>2017-03-04T09:00:57Z</time>
      </trkpt>
      <trkpt lat="59.037692541306" lon="12.225610262673">
        <ele>92.6</ele>
        <time>2017-03-04T09:01:08Z</time>
      </trkpt>
      <trkpt lat="59.03755977201" lon="12.225344891719">
        <ele>93</ele>
        <time>2017-03-04T09:01:20Z</time>
      </trkpt>
      <trkpt lat="59.037401437919" lon="12.225151772743">
        <ele>94.8</ele>
        <time>2017-03-04T09:01:31Z</time>
      </trkpt>
      <trkpt lat="59.037251821004" lon="12.224913894421">
        <ele>97</ele>
        <time>2017-03-04T09:01:43Z</time>
      </trkpt>
      <trkpt lat="59.037138330078" lon="12.224610134365">
        <ele>98.4</ele>
        <time>2017-03-04T09:01:55Z</time>
      </trkpt>
      <trkpt lat="59.037051242137" lon="12.224291538346">
        <ele>99.6</ele>
        <time>2017-03-04T09:02:07Z</time>
      </trkpt>
      <trkpt lat="59.036978319607" lon="12.223957100536">
        <ele>101.2</ele>
        <time>2017-03-04T09:02:18Z</time>
      </trkpt>
      <trkpt lat="59.036903720697" lon="12.223626769857">
        <ele>103.6</ele>
        <time>2017-03-04T09:02:30Z</time>
      </trkpt>
      <trkpt lat="59.036793079617" lon="12.223350837709">
        <ele>100.8</ele>
        <time>2017-03-04T09:02:42Z</time>
      </trkpt>
      <trkpt lat="59.036656622285" lon="12.223086388764">
        <ele>100</ele>
        <time>2017-03-04T09:02:54Z</time>
      </trkpt>
      <trkpt lat="59.03651371089" lon="12.222838368343">
        <ele>95.4</ele>
        <time>2017-03-04T09:03:07Z</time>
      </trkpt>
      <trkpt lat="59.036375744816" lon="12.222570399">
        <ele>95.6</ele>
        <time>2017-03-04T09:03:19Z</time>
      </trkpt>
      <trkpt lat="59.03625638656" lon="12.222441401559">
        <ele>94.6</ele>
        <time>2017-03-04T09:03:28Z</time>
      </trkpt>
      <trkpt lat="59.03609293951" lon="12.222607530817">
        <ele>95.2</ele>
        <time>2017-03-04T09:03:39Z</time>
      </trkpt>
      <trkpt lat="59.035947010631" lon="12.222828310063">
        <ele>94</ele>
        <time>2017-03-04T09:03:52Z</time>
      </trkpt>
      <trkpt lat="59.035789850006" lon="12.223010784026">
        <ele>92.8</ele>
        <time>2017-03-04T09:04:03Z</time>
      </trkpt>
      <trkpt lat="59.035638808168" lon="12.22321999625">
        <ele>92.4</ele>
        <time>2017-03-04T09:04:14Z</time>
      </trkpt>
      <trkpt lat="59.035487598692" lon="12.22341948547">
        <ele>93</ele>
        <time>2017-03-04T09:04:25Z</time>
      </trkpt>
      <trkpt lat="59.035335048112" lon="12.223632553368">
        <ele>93.6</ele>
        <time>2017-03-04T09:04:36Z</time>
      </trkpt>
      <trkpt lat="59.035182832808" lon="12.223841178859">
        <ele>94</ele>
        <time>2017-03-04T09:04:47Z</time>
      </trkpt>
      <trkpt lat="59.035035814282" lon="12.224039913708">
        <ele>92.4</ele>
        <time>2017-03-04T09:04:58Z</time>
      </trkpt>
      <trkpt lat="59.034891980878" lon="12.22429120307">
        <ele>90.8</ele>
        <time>2017-03-04T09:05:10Z</time>
      </trkpt>
      <trkpt lat="59.034797265408" lon="12.224598064429">
        <ele>91</ele>
        <time>2017-03-04T09:05:23Z</time>
      </trkpt>
      <trkpt lat="59.034756780831" lon="12.224940381225">
        <ele>93.8</ele>
        <time>2017-03-04T09:05:35Z</time>
      </trkpt>
      <trkpt lat="59.034785027834" lon="12.225292756301">
        <ele>94</ele>
        <time>2017-03-04T09:05:46Z</time>
      </trkpt>
      <trkpt lat="59.03486750573" lon="12.225626188283">
        <ele>93.2</ele>
        <time>2017-03-04T09:05:58Z</time>
      </trkpt>
      <trkpt lat="59.034976554249" lon="12.225933552556">
        <ele>92.2</ele>
        <time>2017-03-04T09:06:11Z</time>
      </trkpt>
      <trkpt lat="59.035116783436" lon="12.226192553266">
        <ele>90.6</ele>
        <time>2017-03-04T09:06:24Z</time>
      </trkpt>
      <trkpt lat="59.035257347899" lon="12.226439903135">
        <ele>91.4</ele>
        <time>2017-03-04T09:06:36Z</time>
      </trkpt>
      <trkpt lat="59.035379220725" lon="12.226712482523">
        <ele>91.8</ele>
        <time>2017-03-04T09:06:47Z</time>
      </trkpt>
      <trkpt lat="59.03548525176" lon="12.227010039973">
        <ele>92.2</ele>
        <time>2017-03-04T09:06:58Z</time>
      </trkpt>
      <trkpt lat="59.035553228969" lon="12.22735143476">
        <ele>92.8</ele>
        <time>2017-03-04T09:07:09Z</time>
      </trkpt>
      <trkpt lat="59.035603101274" lon="12.227690817891">
        <ele>92.4</ele>
        <time>2017-03-04T09:07:20Z</time>
      </trkpt>
      <trkpt lat="59.035661858393" lon="12.22804210332">
        <ele>92.4</ele>
        <time>2017-03-04T09:07:32Z</time>
      </trkpt>
      <trkpt lat="59.035719693503" lon="12.228393640206">
        <ele>92</ele>
        <time>2017-03-04T09:07:44Z</time>
      </trkpt>
      <trkpt lat="59.035735535294" lon="12.228486930753">
        <ele>92.4</ele>
        <time>2017-03-04T09:07:47Z</time>
      </trkpt>
      <trkpt lat="59.035811642946" lon="12.228828744635">
        <ele>94</ele>
        <time>2017-03-04T09:07:58Z</time>
      </trkpt>
      <trkpt lat="59.035855061188" lon="12.229172989268">
        <ele>93.8</ele>
        <time>2017-03-04T09:08:10Z</time>
      </trkpt>
      <trkpt lat="59.035865035649" lon="12.229531818407">
        <ele>92.8</ele>
        <time>2017-03-04T09:08:22Z</time>
      </trkpt>
      <trkpt lat="59.035894120842" lon="12.229895509048">
        <ele>94</ele>
        <time>2017-03-04T09:08:34Z</time>
      </trkpt>
      <trkpt lat="59.035909962633" lon="12.230245034278">
        <ele>94.8</ele>
        <time>2017-03-04T09:08:45Z</time>
      </trkpt>
      <trkpt lat="59.03591608142" lon="12.230603947236">
        <ele>95.8</ele>
        <time>2017-03-04T09:08:56Z</time>
      </trkpt>
      <trkpt lat="59.035876435033" lon="12.230978869623">
        <ele>97.2</ele>
        <time>2017-03-04T09:09:08Z</time>
      </trkpt>
      <trkpt lat="59.035797142259" lon="12.231320180591">
        <ele>97.2</ele>
        <time>2017-03-04T09:09:20Z</time>
      </trkpt>
      <trkpt lat="59.035661523117" lon="12.231577253464">
        <ele>95.2</ele>
        <time>2017-03-04T09:09:32Z</time>
      </trkpt>
      <trkpt lat="59.035506793243" lon="12.231754949744">
        <ele>93.4</ele>
        <time>2017-03-04T09:09:44Z</time>
      </trkpt>
      <trkpt lat="59.035318368131" lon="12.231785208403">
        <ele>93</ele>
        <time>2017-03-04T09:09:56Z</time>
      </trkpt>
      <trkpt lat="59.035136899996" lon="12.231828039912">
        <ele>95</ele>
        <time>2017-03-04T09:10:07Z</time>
      </trkpt>
      <trkpt lat="59.034941937002" lon="12.231872128706">
        <ele>94.6</ele>
        <time>2017-03-04T09:10:20Z</time>
      </trkpt>
      <trkpt lat="59.034759211582" lon="12.23194220139">
        <ele>94.6</ele>
        <time>2017-03-04T09:10:31Z</time>
      </trkpt>
      <trkpt lat="59.034576989076" lon="12.232011854979">
        <ele>93.4</ele>
        <time>2017-03-04T09:10:43Z</time>
      </trkpt>
      <trkpt lat="59.034399963348" lon="12.232111264313">
        <ele>94.6</ele>
        <time>2017-03-04T09:10:55Z</time>
      </trkpt>
      <trkpt lat="59.034216735014" lon="12.232209584">
        <ele>95.2</ele>
        <time>2017-03-04T09:11:07Z</time>
      </trkpt>
      <trkpt lat="59.034037194716" lon="12.232256690278">
        <ele>94.8</ele>
        <time>2017-03-04T09:11:19Z</time>
      </trkpt>
      <trkpt lat="59.033851451812" lon="12.232345454599">
        <ele>92.2</ele>
        <time>2017-03-04T09:11:32Z</time>
      </trkpt>
      <trkpt lat="59.033676102464" lon="12.23242835159">
        <ele>94.2</ele>
        <time>2017-03-04T09:11:43Z</time>
      </trkpt>
      <trkpt lat="59.033497735632" lon="12.232509991296">
        <ele>94.8</ele>
        <time>2017-03-04T09:11:55Z</time>
      </trkpt>
      <trkpt lat="59.033308639968" lon="12.232593810296">
        <ele>93.2</ele>
        <time>2017-03-04T09:12:08Z</time>
      </trkpt>
      <trkpt lat="59.033124657263" lon="12.232647370637">
        <ele>94.8</ele>
        <time>2017-03-04T09:12:20Z</time>
      </trkpt>
      <trkpt lat="59.032930113364" lon="12.232758514631">
        <ele>97.4</ele>
        <time>2017-03-04T09:12:33Z</time>
      </trkpt>
      <trkpt lat="59.032747052668" lon="12.232829090229">
        <ele>97.6</ele>
        <time>2017-03-04T09:12:45Z</time>
      </trkpt>
      <trkpt lat="59.032564243429" lon="12.232941826784">
        <ele>100</ele>
        <time>2017-03-04T09:12:58Z</time>
      </trkpt>
      <trkpt lat="59.032373303747" lon="12.233026483974">
        <ele>101</ele>
        <time>2017-03-04T09:13:10Z</time>
      </trkpt>
      <trkpt lat="59.032186638834" lon="12.233092449527">
        <ele>98.8</ele>
        <time>2017-03-04T09:13:22Z</time>
      </trkpt>
      <trkpt lat="59.031998297541" lon="12.233172580491">
        <ele>99.8</ele>
        <time>2017-03-04T09:13:35Z</time>
      </trkpt>
      <trkpt lat="59.031814650112" lon="12.233263859382">
        <ele>100.4</ele>
        <time>2017-03-04T09:13:48Z</time>
      </trkpt>
      <trkpt lat="59.031621531136" lon="12.233299901552">
        <ele>100.4</ele>
        <time>2017-03-04T09:14:00Z</time>
      </trkpt>
      <trkpt lat="59.03144098501" lon="12.233369722779">
        <ele>103.4</ele>
        <time>2017-03-04T09:14:13Z</time>
      </trkpt>
      <trkpt lat="59.03126328873" lon="12.233439124911">
        <ele>102.4</ele>
        <time>2017-03-04T09:14:26Z</time>
      </trkpt>
      <trkpt lat="59.031073187238" lon="12.233417751066">
        <ele>98.2</ele>
        <time>2017-03-04T09:14:38Z</time>
      </trkpt>
      <trkpt lat="59.03088358866" lon="12.233355808825">
        <ele>97.6</ele>
        <time>2017-03-04T09:14:50Z</time>
      </trkpt>
      <trkpt lat="59.030703461629" lon="12.233305685063">
        <ele>95.6</ele>
        <time>2017-03-04T09:15:02Z</time>
      </trkpt>
      <trkpt lat="59.030571865799" lon="12.233545491222">
        <ele>98</ele>
        <time>2017-03-04T09:15:16Z</time>
      </trkpt>
      <trkpt lat="59.030478659071" lon="12.233857046445">
        <ele>99.2</ele>
        <time>2017-03-04T09:15:29Z</time>
      </trkpt>
      <trkpt lat="59.030353182028" lon="12.234113448766">
        <ele>98.2</ele>
        <time>2017-03-04T09:15:42Z</time>
      </trkpt>
      <trkpt lat="59.030187555684" lon="12.234249067908">
        <ele>102.2</ele>
        <time>2017-03-04T09:15:54Z</time>
      </trkpt>
      <trkpt lat="59.03000097459" lon="12.234320230239">
        <ele>106</ele>
        <time>2017-03-04T09:16:06Z</time>
      </trkpt>
      <trkpt lat="59.029808274709" lon="12.234296509462">
        <ele>108.2</ele>
        <time>2017-03-04T09:16:20Z</time>
      </trkpt>
      <trkpt lat="59.029623034719" lon="12.234293072883">
        <ele>108.4</ele>
        <time>2017-03-04T09:16:32Z</time>
      </trkpt>
      <trkpt lat="59.029436285987" lon="12.234344621568">
        <ele>106</ele>
        <time>2017-03-04T09:16:42Z</time>
      </trkpt>
      <trkpt lat="59.029251465092" lon="12.234353087287">
        <ele>108</ele>
        <time>2017-03-04T09:16:54Z</time>
      </trkpt>
      <trkpt lat="59.029065889826" lon="12.234349902165">
        <ele>109.8</ele>
        <time>2017-03-04T09:17:05Z</time>
      </trkpt>
      <trkpt lat="59.028877883809" lon="12.234401283212">
        <ele>110.6</ele>
        <time>2017-03-04T09:17:17Z</time>
      </trkpt>
      <trkpt lat="59.02869339819" lon="12.234463979824">
        <ele>109.4</ele>
        <time>2017-03-04T09:17:29Z</time>
      </trkpt>
      <trkpt lat="59.028519976679" lon="12.234607897047">
        <ele>110.4</ele>
        <time>2017-03-04T09:17:40Z</time>
      </trkpt>
      <trkpt lat="59.028354350335" lon="12.234789365182">
        <ele>109</ele>
        <time>2017-03-04T09:17:53Z</time>
      </trkpt>
      <trkpt lat="59.02818545505" lon="12.234963624883">
        <ele>108.4</ele>
        <time>2017-03-04T09:18:06Z</time>
      </trkpt>
      <trkpt lat="59.028005160381" lon="12.235056831611">
        <ele>106.8</ele>
        <time>2017-03-04T09:18:18Z</time>
      </trkpt>
      <trkpt lat="59.027814220699" lon="12.235131681978">
        <ele>105.4</ele>
        <time>2017-03-04T09:18:30Z</time>
      </trkpt>
      <trkpt lat="59.02763979336" lon="12.235216674444">
        <ele>106.4</ele>
        <time>2017-03-04T09:18:42Z</time>
      </trkpt>
      <trkpt lat="59.027540300207" lon="12.235511046772">
        <ele>107.4</ele>
        <time>2017-03-04T09:18:54Z</time>
      </trkpt>
      <trkpt lat="59.027410464576" lon="12.235793013888">
        <ele>108.8</ele>
        <time>2017-03-04T09:19:07Z</time>
      </trkpt>
      <trkpt lat="59.02725590234" lon="12.235999208628">
        <ele>108.6</ele>
        <time>2017-03-04T09:19:19Z</time>
      </trkpt>
      <trkpt lat="59.027095221317" lon="12.236201799151">
        <ele>111</ele>
        <time>2017-03-04T09:19:32Z</time>
      </trkpt>
      <trkpt lat="59.026949543895" lon="12.236425595881">
        <ele>114.4</ele>
        <time>2017-03-04T09:19:46Z</time>
      </trkpt>
      <trkpt lat="59.026816439323" lon="12.236690966835">
        <ele>117</ele>
        <time>2017-03-04T09:19:58Z</time>
      </trkpt>
      <trkpt lat="59.026703367492" lon="12.236964300594">
        <ele>115.8</ele>
        <time>2017-03-04T09:20:09Z</time>
      </trkpt>
      <trkpt lat="59.026615189904" lon="12.237278035111">
        <ele>115.8</ele>
        <time>2017-03-04T09:20:21Z</time>
      </trkpt>
      <trkpt lat="59.026550062541" lon="12.237606102677">
        <ele>115.4</ele>
        <time>2017-03-04T09:20:32Z</time>
      </trkpt>
      <trkpt lat="59.026498765313" lon="12.237870551622">
        <ele>112.4</ele>
        <time>2017-03-04T09:20:42Z</time>
      </trkpt>
      <trkpt lat="59.026332049322" lon="12.238029304808">
        <ele>109.8</ele>
        <time>2017-03-04T09:20:54Z</time>
      </trkpt>
      <trkpt lat="59.026153011938" lon="12.238182945035">
        <ele>110.2</ele>
        <time>2017-03-04T09:21:07Z</time>
      </trkpt>
      <trkpt lat="59.025983110825" lon="12.238310433734">
        <ele>113.4</ele>
        <time>2017-03-04T09:21:18Z</time>
      </trkpt>
      <trkpt lat="59.025805498364" lon="12.238457116984">
        <ele>111.2</ele>
        <time>2017-03-04T09:21:30Z</time>
      </trkpt>
      <trkpt lat="59.025643057142" lon="12.23861419379">
        <ele>111.2</ele>
        <time>2017-03-04T09:21:41Z</time>
      </trkpt>
      <trkpt lat="59.025462762473" lon="12.238758530108">
        <ele>106.4</ele>
        <time>2017-03-04T09:21:52Z</time>
      </trkpt>
      <trkpt lat="59.025291771713" lon="12.238894484526">
        <ele>105.2</ele>
        <time>2017-03-04T09:22:03Z</time>
      </trkpt>
      <trkpt lat="59.02512019422" lon="12.239038737025">
        <ele>106.4</ele>
        <time>2017-03-04T09:22:15Z</time>
      </trkpt>
      <trkpt lat="59.024942078845" lon="12.239178128022">
        <ele>104.6</ele>
        <time>2017-03-04T09:22:27Z</time>
      </trkpt>
      <trkpt lat="59.024755413932" lon="12.239253229846">
        <ele>105.8</ele>
        <time>2017-03-04T09:22:40Z</time>
      </trkpt>
      <trkpt lat="59.024563971336" lon="12.239244345032">
        <ele>106</ele>
        <time>2017-03-04T09:22:52Z</time>
      </trkpt>
      <trkpt lat="59.024394070223" lon="12.239292960052">
        <ele>106</ele>
        <time>2017-03-04T09:23:03Z</time>
      </trkpt>
      <trkpt lat="59.024303042789" lon="12.238991966023">
        <ele>103.6</ele>
        <time>2017-03-04T09:23:14Z</time>
      </trkpt>
      <trkpt lat="59.024210925708" lon="12.238682841551">
        <ele>101.8</ele>
        <time>2017-03-04T09:23:25Z</time>
      </trkpt>
      <trkpt lat="59.024108917985" lon="12.23836441317">
        <ele>101.6</ele>
        <time>2017-03-04T09:23:37Z</time>
      </trkpt>
      <trkpt lat="59.024007329357" lon="12.238078841837">
        <ele>101</ele>
        <time>2017-03-04T09:23:49Z</time>
      </trkpt>
      <trkpt lat="59.023896269182" lon="12.237781452025">
        <ele>99.8</ele>
        <time>2017-03-04T09:24:01Z</time>
      </trkpt>
      <trkpt lat="59.023895011897" lon="12.237712888083">
        <ele>100</ele>
        <time>2017-03-04T09:24:03Z</time>
      </trkpt>
      <trkpt lat="59.024034319075" lon="12.237454390287">
        <ele>101.2</ele>
        <time>2017-03-04T09:24:14Z</time>
      </trkpt>
      <trkpt lat="59.024109085623" lon="12.23712389197">
        <ele>101.4</ele>
        <time>2017-03-04T09:24:25Z</time>
      </trkpt>
      <trkpt lat="59.024217966504" lon="12.236827759443">
        <ele>100.4</ele>
        <time>2017-03-04T09:24:37Z</time>
      </trkpt>
      <trkpt lat="59.024275047243" lon="12.236670850275">
        <ele>99.8</ele>
        <time>2017-03-04T09:24:44Z</time>
      </trkpt>
      <trkpt lat="59.024260630375" lon="12.236655092303">
        <ele>99</ele>
        <time>2017-03-04T09:24:46Z</time>
      </trkpt>
      <trkpt lat="59.024102883017" lon="12.23685986212">
        <ele>96.6</ele>
        <time>2017-03-04T09:24:58Z</time>
      </trkpt>
      <trkpt lat="59.024042365699" lon="12.236944603129">
        <ele>95.2</ele>
        <time>2017-03-04T09:25:04Z</time>
      </trkpt>
      <trkpt lat="59.024010682117" lon="12.236605471455">
        <ele>91</ele>
        <time>2017-03-04T09:25:16Z</time>
      </trkpt>
      <trkpt lat="59.023924516185" lon="12.236272207111">
        <ele>95.6</ele>
        <time>2017-03-04T09:25:27Z</time>
      </trkpt>
      <trkpt lat="59.023882271409" lon="12.235925699365">
        <ele>92.6</ele>
        <time>2017-03-04T09:25:38Z</time>
      </trkpt>
      <trkpt lat="59.023804487377" lon="12.235600146369">
        <ele>88.8</ele>
        <time>2017-03-04T09:25:51Z</time>
      </trkpt>
      <trkpt lat="59.023785963378" lon="12.235228576742">
        <ele>89</ele>
        <time>2017-03-04T09:26:02Z</time>
      </trkpt>
      <trkpt lat="59.023768529026" lon="12.234847870844">
        <ele>90.2</ele>
        <time>2017-03-04T09:26:13Z</time>
      </trkpt>
      <trkpt lat="59.023808175413" lon="12.234486694773">
        <ele>91.4</ele>
        <time>2017-03-04T09:26:24Z</time>
      </trkpt>
      <trkpt lat="59.023951924998" lon="12.234252001573">
        <ele>91.8</ele>
        <time>2017-03-04T09:26:35Z</time>
      </trkpt>
      <trkpt lat="59.024118389532" lon="12.234066342488">
        <ele>91.2</ele>
        <time>2017-03-04T09:26:47Z</time>
      </trkpt>
      <trkpt lat="59.024281920401" lon="12.23389769866">
        <ele>90.2</ele>
        <time>2017-03-04T09:26:59Z</time>
      </trkpt>
      <trkpt lat="59.024457102111" lon="12.233748165564">
        <ele>90.2</ele>
        <time>2017-03-04T09:27:11Z</time>
      </trkpt>
      <trkpt lat="59.024637145323" lon="12.233639033226">
        <ele>90.4</ele>
        <time>2017-03-04T09:27:23Z</time>
      </trkpt>
      <trkpt lat="59.024818613458" lon="12.233546580869">
        <ele>90.6</ele>
        <time>2017-03-04T09:27:35Z</time>
      </trkpt>
      <trkpt lat="59.02511600327" lon="12.233513053269">
        <ele>90.6</ele>
        <time>2017-03-04T09:27:54Z</time>
      </trkpt>
      <trkpt lat="59.025299063966" lon="12.233455888711">
        <ele>90.8</ele>
        <time>2017-03-04T09:28:06Z</time>
      </trkpt>
      <trkpt lat="59.02541691348" lon="12.233198145286">
        <ele>91</ele>
        <time>2017-03-04T09:28:18Z</time>
      </trkpt>
      <trkpt lat="59.025454883487" lon="12.232844177649">
        <ele>90.6</ele>
        <time>2017-03-04T09:28:31Z</time>
      </trkpt>
      <trkpt lat="59.025499642833" lon="12.232496831713">
        <ele>88.6</ele>
        <time>2017-03-04T09:28:43Z</time>
      </trkpt>
      <trkpt lat="59.025607434067" lon="12.232202291747">
        <ele>89</ele>
        <time>2017-03-04T09:28:55Z</time>
      </trkpt>
      <trkpt lat="59.025727546694" lon="12.231926527237">
        <ele>89.8</ele>
        <time>2017-03-04T09:29:07Z</time>
      </trkpt>
      <trkpt lat="59.025862076189" lon="12.23168068611">
        <ele>91</ele>
        <time>2017-03-04T09:29:19Z</time>
      </trkpt>
      <trkpt lat="59.026021667565" lon="12.231485136383">
        <ele>92.8</ele>
        <time>2017-03-04T09:29:31Z</time>
      </trkpt>
      <trkpt lat="59.026187126271" lon="12.231346918852">
        <ele>93</ele>
        <time>2017-03-04T09:29:43Z</time>
      </trkpt>
      <trkpt lat="59.026363397628" lon="12.231275924159">
        <ele>93.2</ele>
        <time>2017-03-04T09:29:55Z</time>
      </trkpt>
      <trkpt lat="59.026557522432" lon="12.231261423472">
        <ele>93.8</ele>
        <time>2017-03-04T09:30:08Z</time>
      </trkpt>
      <trkpt lat="59.026720215111" lon="12.231093534015">
        <ele>94</ele>
        <time>2017-03-04T09:30:20Z</time>
      </trkpt>
      <trkpt lat="59.026857007719" lon="12.230835706771">
        <ele>97</ele>
        <time>2017-03-04T09:30:32Z</time>
      </trkpt>
      <trkpt lat="59.026992878318" lon="12.230586345246">
        <ele>99.6</ele>
        <time>2017-03-04T09:30:44Z</time>
      </trkpt>
      <trkpt lat="59.02712598289" lon="12.230334133875">
        <ele>99.2</ele>
        <time>2017-03-04T09:30:56Z</time>
      </trkpt>
      <trkpt lat="59.027261182937" lon="12.230101619969">
        <ele>98.8</ele>
        <time>2017-03-04T09:31:08Z</time>
      </trkpt>
      <trkpt lat="59.027397053536" lon="12.229849660055">
        <ele>96.2</ele>
        <time>2017-03-04T09:31:21Z</time>
      </trkpt>
      <trkpt lat="59.027499061259" lon="12.229562160885">
        <ele>97.4</ele>
        <time>2017-03-04T09:31:33Z</time>
      </trkpt>
      <trkpt lat="59.027568044296" lon="12.229218502985">
        <ele>97.4</ele>
        <time>2017-03-04T09:31:45Z</time>
      </trkpt>
      <trkpt lat="59.027607439226" lon="12.228862858968">
        <ele>98</ele>
        <time>2017-03-04T09:31:58Z</time>
      </trkpt>
      <trkpt lat="59.027755128304" lon="12.228671751648">
        <ele>101.4</ele>
        <time>2017-03-04T09:32:09Z</time>
      </trkpt>
      <trkpt lat="59.027931734937" lon="12.228771244801">
        <ele>100.4</ele>
        <time>2017-03-04T09:32:20Z</time>
      </trkpt>
      <trkpt lat="59.028088560286" lon="12.228938631344">
        <ele>95.6</ele>
        <time>2017-03-04T09:32:33Z</time>
      </trkpt>
      <trkpt lat="59.028227532188" lon="12.229160416418">
        <ele>89.2</ele>
        <time>2017-03-04T09:32:53Z</time>
      </trkpt>
      <trkpt lat="59.028414448558" lon="12.229237446079">
        <ele>95</ele>
        <time>2017-03-04T09:33:07Z</time>
      </trkpt>
      <trkpt lat="59.028602203118" lon="12.229267369462">
        <ele>92</ele>
        <time>2017-03-04T09:33:22Z</time>
      </trkpt>
      <trkpt lat="59.028782581606" lon="12.22923820045">
        <ele>92.8</ele>
        <time>2017-03-04T09:33:35Z</time>
      </trkpt>
      <trkpt lat="59.028933623444" lon="12.229040974343">
        <ele>100.2</ele>
        <time>2017-03-04T09:33:48Z</time>
      </trkpt>
      <trkpt lat="59.029087012214" lon="12.228835785431">
        <ele>107.2</ele>
        <time>2017-03-04T09:34:03Z</time>
      </trkpt>
      <trkpt lat="59.029284489778" lon="12.228762779082">
        <ele>105.2</ele>
        <time>2017-03-04T09:34:15Z</time>
      </trkpt>
      <trkpt lat="59.029472998709" lon="12.228695304787">
        <ele>106</ele>
        <time>2017-03-04T09:34:27Z</time>
      </trkpt>
      <trkpt lat="59.029646168763" lon="12.228585753354">
        <ele>104.8</ele>
        <time>2017-03-04T09:34:41Z</time>
      </trkpt>
      <trkpt lat="59.029781620267" lon="12.228340163684">
        <ele>103.8</ele>
        <time>2017-03-04T09:34:55Z</time>
      </trkpt>
      <trkpt lat="59.029893853908" lon="12.228086695028">
        <ele>98.6</ele>
        <time>2017-03-04T09:35:43Z</time>
      </trkpt>
      <trkpt lat="59.029949761181" lon="12.227758040729">
        <ele>95.2</ele>
        <time>2017-03-04T09:36:01Z</time>
      </trkpt>
      <trkpt lat="59.029985300437" lon="12.22739418245">
        <ele>95</ele>
        <time>2017-03-04T09:36:15Z</time>
      </trkpt>
      <trkpt lat="59.030006925739" lon="12.227019260063">
        <ele>93.2</ele>
        <time>2017-03-04T09:36:29Z</time>
      </trkpt>
      <trkpt lat="59.030034334552" lon="12.22664735516">
        <ele>93.4</ele>
        <time>2017-03-04T09:36:42Z</time>
      </trkpt>
      <trkpt lat="59.03005964789" lon="12.226297746111">
        <ele>94.6</ele>
        <time>2017-03-04T09:36:55Z</time>
      </trkpt>
      <trkpt lat="59.03007976445" lon="12.225949478166">
        <ele>95.6</ele>
        <time>2017-03-04T09:37:09Z</time>
      </trkpt>
      <trkpt lat="59.030144137442" lon="12.225620907686">
        <ele>96.8</ele>
        <time>2017-03-04T09:37:23Z</time>
      </trkpt>
      <trkpt lat="59.030260981128" lon="12.225326116263">
        <ele>98.4</ele>
        <time>2017-03-04T09:37:43Z</time>
      </trkpt>
      <trkpt lat="59.030307835949" lon="12.225214636993">
        <ele>98.6</ele>
        <time>2017-03-04T09:37:49Z</time>
      </trkpt>
      <trkpt lat="59.030398779564" lon="12.224993690109">
        <ele>99.4</ele>
        <time>2017-03-04T09:38:47Z</time>
      </trkpt>
      <trkpt lat="59.030510929386" lon="12.224695797383">
        <ele>98.8</ele>
        <time>2017-03-04T09:39:01Z</time>
      </trkpt>
      <trkpt lat="59.030622576294" lon="12.224399245761">
        <ele>98.4</ele>
        <time>2017-03-04T09:39:15Z</time>
      </trkpt>
      <trkpt lat="59.030734642297" lon="12.224102442682">
        <ele>96.8</ele>
        <time>2017-03-04T09:39:28Z</time>
      </trkpt>
      <trkpt lat="59.030847965585" lon="12.223803125033">
        <ele>96</ele>
        <time>2017-03-04T09:39:41Z</time>
      </trkpt>
      <trkpt lat="59.030964138719" lon="12.223524343039">
        <ele>96</ele>
        <time>2017-03-04T09:39:54Z</time>
      </trkpt>
      <trkpt lat="59.031079473663" lon="12.223250506366">
        <ele>96.2</ele>
        <time>2017-03-04T09:40:07Z</time>
      </trkpt>
      <trkpt lat="59.03118952801" lon="12.222971975829">
        <ele>96.2</ele>
        <time>2017-03-04T09:40:20Z</time>
      </trkpt>
      <trkpt lat="59.031295810502" lon="12.222669137782">
        <ele>95.6</ele>
        <time>2017-03-04T09:40:33Z</time>
      </trkpt>
      <trkpt lat="59.031342832961" lon="12.22232900028">
        <ele>95.8</ele>
        <time>2017-03-04T09:40:46Z</time>
      </trkpt>
      <trkpt lat="59.031377031113" lon="12.222226405824">
        <ele>96.2</ele>
        <time>2017-03-04T09:40:50Z</time>
      </trkpt>
      <trkpt lat="59.031419862622" lon="12.222029431174">
        <ele>96.4</ele>
        <time>2017-03-04T09:40:59Z</time>
      </trkpt>
      <trkpt lat="59.031260355065" lon="12.221819213122">
        <ele>95.6</ele>
        <time>2017-03-04T09:41:13Z</time>
      </trkpt>
      <trkpt lat="59.031109229408" lon="12.221595500211">
        <ele>97</ele>
        <time>2017-03-04T09:41:26Z</time>
      </trkpt>
      <trkpt lat="59.030957600837" lon="12.221370613834">
        <ele>95</ele>
        <time>2017-03-04T09:41:40Z</time>
      </trkpt>
      <trkpt lat="59.030783508774" lon="12.221281514237">
        <ele>95.8</ele>
        <time>2017-03-04T09:41:52Z</time>
      </trkpt>
      <trkpt lat="59.030607321236" lon="12.22118570912">
        <ele>96</ele>
        <time>2017-03-04T09:42:04Z</time>
      </trkpt>
      <trkpt lat="59.030423170893" lon="12.221083533759">
        <ele>96</ele>
        <time>2017-03-04T09:42:16Z</time>
      </trkpt>
      <trkpt lat="59.03025075521" lon="12.220977586543">
        <ele>96.2</ele>
        <time>2017-03-04T09:42:27Z</time>
      </trkpt>
      <trkpt lat="59.030074148577" lon="12.220863089789">
        <ele>96.2</ele>
        <time>2017-03-04T09:42:38Z</time>
      </trkpt>
      <trkpt lat="59.029901732894" lon="12.220753789813">
        <ele>96.8</ele>
        <time>2017-03-04T09:42:48Z</time>
      </trkpt>
      <trkpt lat="59.029725461537" lon="12.22063334191">
        <ele>97.8</ele>
        <time>2017-03-04T09:42:59Z</time>
      </trkpt>
      <trkpt lat="59.029544328678" lon="12.220561425208">
        <ele>98.4</ele>
        <time>2017-03-04T09:43:10Z</time>
      </trkpt>
      <trkpt lat="59.029366213303" lon="12.220509457428">
        <ele>96</ele>
        <time>2017-03-04T09:43:21Z</time>
      </trkpt>
      <trkpt lat="59.029180302761" lon="12.220434104147">
        <ele>97</ele>
        <time>2017-03-04T09:43:33Z</time>
      </trkpt>
      <trkpt lat="59.028992296744" lon="12.220363696187">
        <ele>98.4</ele>
        <time>2017-03-04T09:43:45Z</time>
      </trkpt>
      <trkpt lat="59.028805212736" lon="12.220299071738">
        <ele>97.4</ele>
        <time>2017-03-04T09:43:57Z</time>
      </trkpt>
      <trkpt lat="59.028614105416" lon="12.220229250511">
        <ele>99</ele>
        <time>2017-03-04T09:44:09Z</time>
      </trkpt>
      <trkpt lat="59.028428781607" lon="12.220166302442">
        <ele>99.4</ele>
        <time>2017-03-04T09:44:21Z</time>
      </trkpt>
      <trkpt lat="59.028246223825" lon="12.22011198773">
        <ele>100.8</ele>
        <time>2017-03-04T09:44:33Z</time>
      </trkpt>
      <trkpt lat="59.02806140293" lon="12.220048369109">
        <ele>100.2</ele>
        <time>2017-03-04T09:44:45Z</time>
      </trkpt>
      <trkpt lat="59.027878593691" lon="12.219972429095">
        <ele>99.8</ele>
        <time>2017-03-04T09:44:57Z</time>
      </trkpt>
      <trkpt lat="59.027692180235" lon="12.219905373895">
        <ele>101.2</ele>
        <time>2017-03-04T09:45:09Z</time>
      </trkpt>
      <trkpt lat="59.027497133422" lon="12.219880395833">
        <ele>99</ele>
        <time>2017-03-04T09:45:21Z</time>
      </trkpt>
      <trkpt lat="59.027139477749" lon="12.21978341725">
        <ele>96</ele>
        <time>2017-03-04T09:45:44Z</time>
      </trkpt>
      <trkpt lat="59.026969492817" lon="12.219847706423">
        <ele>96.6</ele>
        <time>2017-03-04T09:45:55Z</time>
      </trkpt>
      <trkpt lat="59.026953986302" lon="12.220193208341">
        <ele>98.2</ele>
        <time>2017-03-04T09:46:07Z</time>
      </trkpt>
      <trkpt lat="59.026965218048" lon="12.22055371386">
        <ele>100.8</ele>
        <time>2017-03-04T09:46:19Z</time>
      </trkpt>
      <trkpt lat="59.026918698503" lon="12.220916482492">
        <ele>106.8</ele>
        <time>2017-03-04T09:46:31Z</time>
      </trkpt>
      <trkpt lat="59.026847871448" lon="12.221244969153">
        <ele>109.6</ele>
        <time>2017-03-04T09:46:44Z</time>
      </trkpt>
      <trkpt lat="59.026781235343" lon="12.221572282348">
        <ele>109</ele>
        <time>2017-03-04T09:46:56Z</time>
      </trkpt>
      <trkpt lat="59.026685178769" lon="12.221882915562">
        <ele>108.4</ele>
        <time>2017-03-04T09:47:07Z</time>
      </trkpt>
      <trkpt lat="59.02659540862" lon="12.222210144938">
        <ele>106.6</ele>
        <time>2017-03-04T09:47:19Z</time>
      </trkpt>
      <trkpt lat="59.026507985403" lon="12.222534775925">
        <ele>105.6</ele>
        <time>2017-03-04T09:47:30Z</time>
      </trkpt>
      <trkpt lat="59.026416790331" lon="12.222848594261">
        <ele>105.8</ele>
        <time>2017-03-04T09:47:41Z</time>
      </trkpt>
      <trkpt lat="59.026351076235" lon="12.223191162514">
        <ele>104.6</ele>
        <time>2017-03-04T09:47:52Z</time>
      </trkpt>
      <trkpt lat="59.026323080689" lon="12.223547560902">
        <ele>104.4</ele>
        <time>2017-03-04T09:48:03Z</time>
      </trkpt>
      <trkpt lat="59.02634311343" lon="12.223908066421">
        <ele>107.6</ele>
        <time>2017-03-04T09:48:14Z</time>
      </trkpt>
      <trkpt lat="59.026365157827" lon="12.224210569192">
        <ele>109.4</ele>
        <time>2017-03-04T09:48:24Z</time>
      </trkpt>
      <trkpt lat="59.026549978722" lon="12.224226746259">
        <ele>108.8</ele>
        <time>2017-03-04T09:48:36Z</time>
      </trkpt>
      <trkpt lat="59.026733542332" lon="12.224183244198">
        <ele>106</ele>
        <time>2017-03-04T09:48:48Z</time>
      </trkpt>
      <trkpt lat="59.026905036006" lon="12.224254238891">
        <ele>107.4</ele>
        <time>2017-03-04T09:49:00Z</time>
      </trkpt>
      <trkpt lat="59.027084408666" lon="12.224223561137">
        <ele>112</ele>
        <time>2017-03-04T09:49:12Z</time>
      </trkpt>
      <trkpt lat="59.027124641786" lon="12.22418559113">
        <ele>114</ele>
        <time>2017-03-04T09:49:15Z</time>
      </trkpt>
    </trkseg>
  </trk>
</gpx>